createdAt,value
2017-11-22T00:00:33.741Z,97378.09
2017-11-22T00:01:36.304Z,97365.66
2017-11-22T00:02:39.242Z,97370.96
2017-11-22T00:03:41.758Z,97365.69
2017-11-22T00:04:44.428Z,97360.69
2017-11-22T00:05:46.953Z,97360.38
2017-11-22T00:06:49.551Z,97358.66
2017-11-22T00:07:52.087Z,97360.75
2017-11-22T00:08:55.092Z,97372.48
2017-11-22T00:09:57.623Z,97361.15
2017-11-22T00:11:00.273Z,97353.39
2017-11-22T00:12:02.863Z,97358.69
2017-11-22T00:13:05.476Z,97364.73
2017-11-22T00:14:07.999Z,97348.98
2017-11-22T00:15:11.109Z,97355.58
2017-11-22T00:16:13.642Z,97343.41
2017-11-22T00:17:16.237Z,97355.97
2017-11-22T00:18:18.766Z,97343.44
2017-11-22T00:19:21.320Z,97333.03
2017-11-22T00:20:23.847Z,97349.20
2017-11-22T00:21:26.877Z,97350.80
2017-11-22T00:22:29.383Z,97358.93
2017-11-22T00:23:31.918Z,97372.82
2017-11-22T00:24:34.470Z,97369.05
2017-11-22T00:25:37.063Z,97357.30
2017-11-22T00:26:39.582Z,97363.11
2017-11-22T00:27:42.509Z,97365.69
2017-11-22T00:28:45.035Z,97361.05
2017-11-22T00:29:47.604Z,97364.77
2017-11-22T00:30:50.176Z,97351.96
2017-11-22T00:31:52.703Z,97356.05
2017-11-22T00:32:55.252Z,97344.66
2017-11-22T00:33:58.287Z,97352.06
2017-11-22T00:35:00.856Z,97349.91
2017-11-22T00:36:03.433Z,97354.08
2017-11-22T00:37:05.965Z,97350.70
2017-11-22T00:38:08.498Z,97350.06
2017-11-22T00:39:11.053Z,97349.67
2017-11-22T00:40:13.952Z,97354.95
2017-11-22T00:41:16.518Z,97346.16
2017-11-22T00:42:19.050Z,97350.97
2017-11-22T00:43:21.669Z,97347.22
2017-11-22T00:44:24.237Z,97345.55
2017-11-22T00:45:26.759Z,97350.47
2017-11-22T00:46:29.741Z,97349.67
2017-11-22T00:47:32.281Z,97347.08
2017-11-22T00:48:34.844Z,97354.22
2017-11-22T00:49:37.397Z,97352.79
2017-11-22T00:50:39.950Z,97339.28
2017-11-22T00:51:42.506Z,97349.27
2017-11-22T00:52:45.589Z,97349.04
2017-11-22T00:53:48.104Z,97352.76
2017-11-22T00:54:50.668Z,97354.81
2017-11-22T00:55:53.280Z,97350.53
2017-11-22T00:56:55.824Z,97348.08
2017-11-22T00:57:58.347Z,97350.00
2017-11-22T00:59:01.366Z,97356.08
2017-11-22T01:00:04.018Z,97347.58
2017-11-22T01:01:06.576Z,97349.14
2017-11-22T01:02:09.113Z,97347.84
2017-11-22T01:03:12.830Z,97345.92
2017-11-22T01:04:15.639Z,97335.70
2017-11-22T01:05:18.658Z,97339.22
2017-11-22T01:06:21.227Z,97333.75
2017-11-22T01:07:23.762Z,97345.03
2017-11-22T01:08:26.432Z,97343.20
2017-11-22T01:09:29.008Z,97346.05
2017-11-22T01:10:31.626Z,97345.82
2017-11-22T01:11:34.612Z,97341.08
2017-11-22T01:12:37.121Z,97341.11
2017-11-22T01:13:39.688Z,97341.97
2017-11-22T01:14:42.335Z,97348.08
2017-11-22T01:15:44.874Z,97339.95
2017-11-22T01:16:47.399Z,97340.81
2017-11-22T01:17:50.429Z,97341.45
2017-11-22T01:18:53.050Z,97336.67
2017-11-22T01:19:55.627Z,97338.06
2017-11-22T01:20:58.209Z,97336.30
2017-11-22T01:22:00.870Z,97332.55
2017-11-22T01:23:03.509Z,97338.48
2017-11-22T01:24:06.407Z,97342.61
2017-11-22T01:25:08.997Z,97338.78
2017-11-22T01:26:11.559Z,97325.61
2017-11-22T01:27:14.173Z,97345.72
2017-11-22T01:28:16.726Z,97342.83
2017-11-22T01:29:19.311Z,97352.52
2017-11-22T01:30:22.239Z,97339.72
2017-11-22T01:31:24.860Z,97337.69
2017-11-22T01:32:27.412Z,97322.95
2017-11-22T01:33:29.967Z,97333.80
2017-11-22T01:34:32.533Z,97336.79
2017-11-22T01:35:35.121Z,97324.88
2017-11-22T01:36:38.035Z,97330.42
2017-11-22T01:37:40.583Z,97331.72
2017-11-22T01:38:43.102Z,97331.38
2017-11-22T01:39:45.661Z,97328.13
2017-11-22T01:40:48.265Z,97323.22
2017-11-22T01:41:51.159Z,97329.29
2017-11-22T01:42:53.903Z,97328.00
2017-11-22T01:43:56.454Z,97328.09
2017-11-22T01:44:59.190Z,97337.16
2017-11-22T01:46:01.784Z,97330.58
2017-11-22T01:47:04.357Z,97330.05
2017-11-22T01:48:07.356Z,97334.13
2017-11-22T01:49:09.840Z,97323.75
2017-11-22T01:50:12.347Z,97331.11
2017-11-22T01:51:14.818Z,97318.20
2017-11-22T01:52:17.339Z,97324.14
2017-11-22T01:53:19.883Z,97324.67
2017-11-22T01:54:22.761Z,97317.31
2017-11-22T01:55:25.259Z,97320.37
2017-11-22T01:56:27.815Z,97320.53
2017-11-22T01:57:30.356Z,97325.20
2017-11-22T01:58:32.898Z,97327.55
2017-11-22T01:59:35.453Z,97319.77
2017-11-22T02:00:38.433Z,97325.60
2017-11-22T02:01:40.965Z,97328.42
2017-11-22T02:02:43.498Z,97321.45
2017-11-22T05:15:21.746Z,97236.98
2017-11-22T05:16:24.314Z,97236.33
2017-11-22T05:18:45.928Z,97238.30
2017-11-22T05:19:48.474Z,97235.73
2017-11-22T05:20:51.480Z,97231.16
2017-11-22T05:21:54.473Z,97237.61
2017-11-22T05:22:57.067Z,97238.78
2017-11-22T05:23:59.640Z,97234.67
2017-11-22T05:25:02.232Z,97233.64
2017-11-22T05:26:05.398Z,97227.00
2017-11-22T05:27:08.381Z,97229.45
2017-11-22T05:28:10.932Z,97224.91
2017-11-22T05:29:13.474Z,97233.47
2017-11-22T05:30:16.050Z,97235.78
2017-11-22T05:31:18.724Z,97230.86
2017-11-22T05:32:21.302Z,97231.80
2017-11-22T05:33:24.397Z,97226.50
2017-11-22T05:34:26.962Z,97229.45
2017-11-22T05:35:29.531Z,97229.98
2017-11-22T05:36:32.078Z,97227.54
2017-11-22T05:37:34.656Z,97227.16
2017-11-22T05:38:37.650Z,97232.63
2017-11-22T05:39:40.595Z,97231.34
2017-11-22T05:40:43.209Z,97222.12
2017-11-22T05:41:45.807Z,97216.14
2017-11-22T05:42:48.483Z,97222.75
2017-11-22T05:43:51.071Z,97221.44
2017-11-22T05:44:53.652Z,97217.44
2017-11-22T05:45:56.614Z,97222.86
2017-11-22T05:46:59.200Z,97218.19
2017-11-22T05:48:01.831Z,97218.48
2017-11-22T05:49:04.431Z,97224.36
2017-11-22T05:50:06.996Z,97214.02
2017-11-22T05:51:09.583Z,97220.59
2017-11-22T05:52:12.580Z,97214.77
2017-11-22T05:53:15.256Z,97206.28
2017-11-22T05:54:17.872Z,97216.72
2017-11-22T05:55:20.520Z,97216.97
2017-11-22T05:56:23.079Z,97213.85
2017-11-22T05:57:25.702Z,97222.45
2017-11-22T05:58:28.618Z,97223.11
2017-11-22T05:59:31.233Z,97229.85
2017-11-22T06:00:38.708Z,97217.42
2017-11-22T06:01:41.294Z,97218.06
2017-11-22T06:02:43.881Z,97214.04
2017-11-22T06:03:46.458Z,97215.30
2017-11-22T06:04:49.569Z,97215.67
2017-11-22T06:05:52.165Z,97211.92
2017-11-22T06:06:54.775Z,97212.05
2017-11-22T06:07:57.350Z,97224.38
2017-11-22T06:09:00.006Z,97219.07
2017-11-22T06:10:02.594Z,97222.56
2017-11-22T06:11:05.760Z,97222.15
2017-11-22T06:12:08.372Z,97223.33
2017-11-22T06:13:11.019Z,97226.28
2017-11-22T06:14:13.602Z,97222.11
2017-11-22T06:15:16.161Z,97228.84
2017-11-22T06:16:19.114Z,97222.59
2017-11-22T06:17:21.742Z,97220.66
2017-11-22T06:18:24.320Z,97223.77
2017-11-22T06:19:26.898Z,97224.31
2017-11-22T06:20:29.470Z,97219.77
2017-11-22T06:21:32.115Z,97230.22
2017-11-22T06:22:35.067Z,97230.89
2017-11-22T06:23:37.637Z,97228.91
2017-11-22T06:24:40.205Z,97217.33
2017-11-22T06:25:42.858Z,97223.53
2017-11-22T06:26:45.452Z,97223.27
2017-11-22T06:27:48.048Z,97223.52
2017-11-22T06:28:51.065Z,97231.53
2017-11-22T06:29:58.477Z,97225.98
2017-11-22T06:31:01.110Z,97221.55
2017-11-22T06:32:03.767Z,97238.15
2017-11-22T06:33:06.349Z,97242.55
2017-11-22T06:34:08.963Z,97235.07
2017-11-22T06:35:12.030Z,97228.30
2017-11-22T06:36:14.591Z,97225.33
2017-11-22T06:37:17.191Z,97230.38
2017-11-22T06:38:19.821Z,97245.52
2017-11-22T06:39:25.230Z,97235.95
2017-11-22T06:40:27.816Z,97250.22
2017-11-22T06:41:30.624Z,97243.17
2017-11-22T06:42:33.202Z,97232.95
2017-11-22T06:43:35.678Z,97239.16
2017-11-22T06:44:38.147Z,97234.72
2017-11-22T06:45:40.782Z,97242.79
2017-11-22T06:46:43.351Z,97244.98
2017-11-22T06:47:46.401Z,97244.45
2017-11-22T06:48:48.995Z,97237.61
2017-11-22T06:49:51.616Z,97247.58
2017-11-22T06:50:54.210Z,97231.00
2017-11-22T06:51:56.898Z,97236.44
2017-11-22T06:52:59.506Z,97242.00
2017-11-22T06:54:02.518Z,97244.19
2017-11-22T06:55:05.647Z,97250.05
2017-11-22T06:56:08.323Z,97254.86
2017-11-22T06:57:11.074Z,97248.11
2017-11-22T06:58:13.814Z,97243.31
2017-11-22T06:59:16.504Z,97243.57
2017-11-22T07:00:19.181Z,97255.77
2017-11-22T07:01:21.834Z,97244.63
2017-11-22T07:02:29.438Z,97252.78
2017-11-22T07:04:02.705Z,97247.09
2017-11-22T07:05:06.003Z,97242.83
2017-11-22T07:06:08.587Z,97259.03
2017-11-22T07:07:11.169Z,97253.03
2017-11-22T07:08:13.802Z,97254.97
2017-11-22T07:09:16.627Z,97253.44
2017-11-22T07:10:19.283Z,97259.25
2017-11-22T07:11:22.294Z,97256.41
2017-11-22T07:12:24.997Z,97254.59
2017-11-22T07:13:27.628Z,97265.34
2017-11-22T07:14:30.354Z,97262.11
2017-11-22T07:15:33.070Z,97255.92
2017-11-22T07:17:43.143Z,97243.88
2017-11-22T07:18:45.960Z,97253.19
2017-11-22T07:19:48.667Z,97251.98
2017-11-22T07:20:51.267Z,97252.38
2017-11-22T07:21:54.009Z,97251.88
2017-11-22T07:22:56.703Z,97258.72
2017-11-22T07:24:00.156Z,97262.61
2017-11-22T07:25:03.783Z,97261.22
2017-11-22T07:26:06.807Z,97261.70
2017-11-22T07:27:09.519Z,97259.00
2017-11-22T07:28:12.479Z,97267.13
2017-11-22T07:29:15.174Z,97261.84
2017-11-22T07:30:18.405Z,97271.31
2017-11-22T07:31:21.092Z,97261.22
2017-11-22T07:32:24.474Z,97267.70
2017-11-22T07:33:27.095Z,97277.41
2017-11-22T07:34:29.800Z,97281.97
2017-11-22T07:35:37.318Z,97268.12
2017-11-22T07:36:45.806Z,97265.55
2017-11-22T07:38:02.758Z,97267.72
2017-11-22T07:39:05.426Z,97272.51
2017-11-22T07:40:08.083Z,97268.12
2017-11-22T07:41:10.751Z,97276.02
2017-11-22T07:42:13.847Z,97273.03
2017-11-22T07:43:16.479Z,97277.45
2017-11-22T07:44:19.142Z,97287.02
2017-11-22T07:45:21.813Z,97280.06
2017-11-22T07:46:27.432Z,97276.92
2017-11-22T07:47:30.139Z,97278.11
2017-11-22T07:48:33.170Z,97286.38
2017-11-22T07:49:35.875Z,97282.39
2017-11-22T07:50:38.499Z,97276.56
2017-11-22T07:51:46.109Z,97279.68
2017-11-22T07:52:48.771Z,97282.27
2017-11-22T07:53:51.440Z,97295.89
2017-11-22T07:54:54.513Z,97283.19
2017-11-22T07:55:59.854Z,97295.75
2017-11-22T07:57:06.273Z,97278.80
2017-11-22T07:58:08.879Z,97292.52
2017-11-22T07:59:12.470Z,97282.42
2017-11-22T08:00:15.149Z,97291.36
2017-11-22T08:01:18.376Z,97284.89
2017-11-22T08:02:21.209Z,97285.14
2017-11-22T08:03:23.968Z,97283.34
2017-11-22T08:04:28.684Z,97285.28
2017-11-22T08:05:31.477Z,97280.75
2017-11-22T08:06:34.187Z,97278.28
2017-11-22T08:07:37.348Z,97279.20
2017-11-22T08:08:40.027Z,97280.24
2017-11-22T08:09:42.684Z,97282.98
2017-11-22T08:10:45.396Z,97269.12
2017-11-22T08:11:48.061Z,97281.31
2017-11-22T08:12:51.492Z,97277.69
2017-11-22T08:13:54.114Z,97284.70
2017-11-22T08:14:56.734Z,97282.87
2017-11-22T08:15:59.387Z,97289.61
2017-11-22T08:17:02.844Z,97286.11
2017-11-22T08:18:05.546Z,97287.31
2017-11-22T08:19:08.520Z,97288.70
2017-11-22T08:20:13.183Z,97283.68
2017-11-22T08:21:15.845Z,97297.54
2017-11-22T08:22:19.405Z,97290.16
2017-11-22T08:23:22.097Z,97295.86
2017-11-22T08:24:25.454Z,97296.00
2017-11-22T08:25:30.292Z,97290.95
2017-11-22T08:26:33.720Z,97303.53
2017-11-22T08:27:36.320Z,97300.17
2017-11-22T08:28:39.405Z,97297.97
2017-11-22T08:29:42.154Z,97295.90
2017-11-22T08:30:44.851Z,97291.91
2017-11-22T08:31:48.061Z,97286.56
2017-11-22T08:32:50.706Z,97291.61
2017-11-22T08:33:53.420Z,97288.64
2017-11-22T08:34:56.072Z,97291.50
2017-11-22T08:35:58.692Z,97295.78
2017-11-22T08:37:01.585Z,97296.17
2017-11-22T08:38:04.531Z,97299.16
2017-11-22T08:39:07.158Z,97303.71
2017-11-22T08:40:09.873Z,97305.84
2017-11-22T08:41:12.564Z,97302.98
2017-11-22T08:42:16.232Z,97308.17
2017-11-22T08:43:23.844Z,97307.86
2017-11-22T08:44:26.980Z,97308.70
2017-11-22T08:45:29.670Z,97299.88
2017-11-22T08:46:32.754Z,97301.45
2017-11-22T08:47:35.512Z,97302.65
2017-11-22T08:48:38.480Z,97299.14
2017-11-22T08:49:41.056Z,97317.69
2017-11-22T08:50:44.430Z,97294.26
2017-11-22T08:51:46.982Z,97308.28
2017-11-22T08:52:49.571Z,97296.50
2017-11-22T08:53:52.152Z,97315.03
2017-11-22T08:54:59.698Z,97309.54
2017-11-22T08:56:07.188Z,97324.30
2017-11-22T08:57:15.271Z,97307.38
2017-11-22T08:58:17.989Z,97327.11
2017-11-22T08:59:20.660Z,97315.17
2017-11-22T09:00:23.428Z,97316.20
2017-11-22T09:01:27.099Z,97315.02
2017-11-22T09:02:29.839Z,97315.14
2017-11-22T09:03:37.860Z,97308.30
2017-11-22T09:04:40.548Z,97306.49
2017-11-22T09:05:49.443Z,97305.21
2017-11-22T09:06:53.959Z,97314.14
2017-11-22T09:07:58.615Z,97308.95
2017-11-22T09:09:01.356Z,97316.34
2017-11-22T09:10:04.478Z,97308.20
2017-11-22T09:11:07.153Z,97313.23
2017-11-22T09:12:11.621Z,97315.41
2017-11-22T09:13:31.740Z,97306.22
2017-11-22T09:14:34.472Z,97305.61
2017-11-22T09:15:37.286Z,97317.94
2017-11-22T09:16:40.336Z,97316.91
2017-11-22T09:17:43.162Z,97330.73
2017-11-22T09:19:00.312Z,97316.73
2017-11-22T09:20:06.915Z,97333.21
2017-11-22T09:21:10.559Z,97320.41
2017-11-22T09:22:13.298Z,97322.85
2017-11-22T09:23:16.437Z,97327.03
2017-11-22T09:25:06.666Z,97328.57
2017-11-22T09:26:09.414Z,97331.70
2017-11-22T09:27:17.014Z,97322.52
2017-11-22T09:28:19.560Z,97316.30
2017-11-22T09:29:22.176Z,97321.13
2017-11-22T09:30:24.888Z,97318.28
2017-11-22T09:31:32.531Z,97320.59
2017-11-22T09:32:35.528Z,97323.44
2017-11-22T09:33:38.165Z,97322.12
2017-11-22T09:34:46.234Z,97327.91
2017-11-22T09:35:48.981Z,97327.84
2017-11-22T09:36:51.663Z,97327.20
2017-11-22T09:37:54.377Z,97325.26
2017-11-22T09:38:57.041Z,97320.36
2017-11-22T09:39:59.774Z,97316.67
2017-11-22T09:41:02.889Z,97324.73
2017-11-22T09:42:05.560Z,97314.87
2017-11-22T09:43:08.233Z,97321.91
2017-11-22T09:44:10.938Z,97329.42
2017-11-22T09:45:15.132Z,97324.66
2017-11-22T09:46:17.908Z,97322.14
2017-11-22T09:47:21.038Z,97320.56
2017-11-22T09:48:24.338Z,97316.23
2017-11-22T09:49:27.066Z,97316.47
2017-11-22T09:50:29.724Z,97319.86
2017-11-22T09:51:32.490Z,97321.00
2017-11-22T09:52:35.177Z,97325.31
2017-11-22T09:53:38.359Z,97320.32
2017-11-22T09:54:41.019Z,97310.78
2017-11-22T09:55:43.727Z,97310.09
2017-11-22T09:56:46.561Z,97315.31
2017-11-22T09:57:49.241Z,97311.54
2017-11-22T09:58:51.914Z,97308.44
2017-11-22T09:59:54.980Z,97306.98
2017-11-22T10:00:57.740Z,97304.48
2017-11-22T10:02:00.436Z,97321.03
2017-11-22T10:03:03.169Z,97315.56
2017-11-22T10:04:05.843Z,97308.82
2017-11-22T10:05:08.531Z,97307.37
2017-11-22T10:06:11.211Z,97307.23
2017-11-22T10:07:13.779Z,97329.83
2017-11-22T10:08:17.328Z,97311.05
2017-11-22T10:09:20.008Z,97306.97
2017-11-22T10:10:22.768Z,97314.27
2017-11-22T10:11:25.964Z,97311.81
2017-11-22T10:12:28.641Z,97314.77
2017-11-22T10:13:31.355Z,97321.48
2017-11-22T10:14:34.032Z,97315.74
2017-11-22T10:15:36.701Z,97321.98
2017-11-22T10:16:39.496Z,97312.52
2017-11-22T10:17:42.302Z,97316.39
2017-11-22T10:18:47.466Z,97310.80
2017-11-22T10:19:54.104Z,97313.39
2017-11-22T10:20:56.840Z,97325.58
2017-11-22T10:22:03.869Z,97303.36
2017-11-22T10:23:11.031Z,97312.33
2017-11-22T10:24:17.815Z,97304.60
2017-11-22T10:25:20.628Z,97315.20
2017-11-22T10:26:27.292Z,97299.92
2017-11-22T10:27:30.148Z,97308.33
2017-11-22T10:28:33.029Z,97305.73
2017-11-22T10:29:39.748Z,97303.78
2017-11-22T10:30:43.120Z,97302.20
2017-11-22T10:31:46.610Z,97305.63
2017-11-22T10:32:50.308Z,97306.83
2017-11-22T10:33:53.061Z,97310.86
2017-11-22T10:34:56.153Z,97300.39
2017-11-22T10:35:58.989Z,97309.30
2017-11-22T10:37:01.807Z,97299.73
2017-11-22T10:38:04.528Z,97287.84
2017-11-22T10:39:07.371Z,97292.54
2017-11-22T10:40:10.092Z,97301.59
2017-11-22T10:41:13.210Z,97300.63
2017-11-22T10:42:16.010Z,97305.95
2017-11-22T10:43:19.594Z,97300.41
2017-11-22T10:44:22.266Z,97301.07
2017-11-22T10:45:24.909Z,97296.73
2017-11-22T10:46:27.568Z,97300.38
2017-11-22T10:47:30.349Z,97297.69
2017-11-22T10:48:32.970Z,97291.53
2017-11-22T10:49:35.597Z,97290.16
2017-11-22T10:50:38.405Z,97289.25
2017-11-22T10:51:41.116Z,97286.25
2017-11-22T10:52:43.760Z,97289.52
2017-11-22T10:53:46.435Z,97289.39
2017-11-22T10:54:49.147Z,97277.98
2017-11-22T10:55:51.775Z,97292.15
2017-11-22T10:56:54.486Z,97280.55
2017-11-22T10:57:57.522Z,97287.42
2017-11-22T10:59:00.247Z,97276.98
2017-11-22T11:15:38.225Z,97266.63
2017-11-22T11:16:40.923Z,97277.75
2017-11-22T11:17:43.643Z,97274.86
2017-11-22T11:18:46.394Z,97272.03
2017-11-22T11:19:49.113Z,97272.25
2017-11-22T11:20:51.827Z,97276.29
2017-11-22T11:21:54.560Z,97282.08
2017-11-22T11:22:57.362Z,97282.39
2017-11-22T11:24:00.105Z,97276.88
2017-11-22T11:25:03.418Z,97280.38
2017-11-22T11:26:06.503Z,97281.09
2017-11-22T11:27:09.249Z,97274.17
2017-11-22T11:28:11.916Z,97272.59
2017-11-22T11:29:14.805Z,97268.55
2017-11-22T11:30:17.459Z,97276.16
2017-11-22T11:31:20.253Z,97276.90
2017-11-22T11:32:24.047Z,97273.39
2017-11-22T11:33:27.100Z,97270.80
2017-11-22T11:34:30.090Z,97268.00
2017-11-22T11:35:32.811Z,97259.54
2017-11-22T11:36:35.492Z,97258.15
2017-11-22T11:37:38.138Z,97262.71
2017-11-22T11:38:41.280Z,97263.52
2017-11-22T11:39:44.008Z,97255.59
2017-11-22T11:40:46.756Z,97265.91
2017-11-22T11:41:49.409Z,97258.84
2017-11-22T11:42:52.076Z,97266.58
2017-11-22T11:43:54.730Z,97266.59
2017-11-22T11:44:57.671Z,97268.55
2017-11-22T11:46:00.259Z,97258.80
2017-11-22T11:47:03.222Z,97262.75
2017-11-22T11:48:05.977Z,97261.55
2017-11-22T11:49:08.635Z,97256.75
2017-11-22T11:50:11.299Z,97257.77
2017-11-22T11:51:14.528Z,97255.38
2017-11-22T11:52:17.329Z,97251.89
2017-11-22T11:53:20.125Z,97246.66
2017-11-22T11:54:22.848Z,97255.23
2017-11-22T11:55:26.548Z,97244.84
2017-11-22T11:56:29.441Z,97250.42
2017-11-22T11:57:32.618Z,97249.57
2017-11-22T11:58:35.331Z,97243.16
2017-11-22T11:59:38.045Z,97240.85
2017-11-22T12:00:41.019Z,97249.94
2017-11-22T12:01:43.729Z,97243.09
2017-11-22T12:02:46.530Z,97242.56
2017-11-22T12:03:49.618Z,97250.30
2017-11-22T12:04:52.321Z,97237.97
2017-11-22T12:05:54.984Z,97229.69
2017-11-22T12:06:57.693Z,97234.57
2017-11-22T12:08:00.750Z,97237.20
2017-11-22T12:09:03.497Z,97242.86
2017-11-22T12:10:06.662Z,97234.84
2017-11-22T12:11:12.348Z,97243.02
2017-11-22T12:12:15.048Z,97244.08
2017-11-22T12:13:17.722Z,97239.47
2017-11-22T12:14:20.379Z,97240.58
2017-11-22T12:15:22.992Z,97237.11
2017-11-22T12:16:26.065Z,97242.91
2017-11-22T12:17:28.717Z,97238.69
2017-11-22T12:18:31.447Z,97236.95
2017-11-22T12:19:34.117Z,97237.38
2017-11-22T12:20:36.876Z,97244.44
2017-11-22T12:24:56.159Z,97235.56
2017-11-22T12:25:58.961Z,97233.48
2017-11-22T12:27:01.764Z,97233.05
2017-11-22T12:28:12.510Z,97228.09
2017-11-22T12:29:15.785Z,97227.42
2017-11-22T12:30:18.513Z,97233.12
2017-11-22T12:31:21.559Z,97228.10
2017-11-22T12:32:24.271Z,97234.72
2017-11-22T12:33:26.925Z,97224.08
2017-11-22T12:34:29.666Z,97225.01
2017-11-22T12:35:32.333Z,97225.46
2017-11-22T12:36:35.089Z,97222.51
2017-11-22T12:37:38.175Z,97222.70
2017-11-22T12:38:41.038Z,97229.92
2017-11-22T12:39:43.782Z,97231.98
2017-11-22T12:40:46.525Z,97230.14
2017-11-22T12:41:49.187Z,97225.33
2017-11-22T12:42:51.884Z,97233.77
2017-11-22T12:43:56.117Z,97224.77
2017-11-22T12:44:58.756Z,97224.66
2017-11-22T12:46:01.757Z,97221.42
2017-11-22T12:47:04.387Z,97214.39
2017-11-22T12:48:07.153Z,97212.70
2017-11-22T12:49:09.773Z,97218.63
2017-11-22T12:50:12.492Z,97218.93
2017-11-22T12:51:15.130Z,97209.88
2017-11-22T12:52:18.022Z,97208.20
2017-11-22T12:53:20.707Z,97210.13
2017-11-22T12:54:23.560Z,97209.52
2017-11-22T12:55:26.538Z,97214.17
2017-11-22T12:56:29.248Z,97206.72
2017-11-22T12:57:42.896Z,97208.80
2017-11-22T12:58:45.628Z,97212.68
2017-11-22T12:59:48.352Z,97209.81
2017-11-22T13:00:51.024Z,97213.30
2017-11-22T13:01:54.296Z,97214.77
2017-11-22T13:02:56.945Z,97216.45
2017-11-22T13:03:59.634Z,97214.07
2017-11-22T13:05:02.347Z,97208.17
2017-11-22T13:06:05.045Z,97218.69
2017-11-22T13:07:07.735Z,97211.25
2017-11-22T13:08:10.667Z,97208.01
2017-11-22T13:09:13.357Z,97213.41
2017-11-22T13:13:36.758Z,97211.69
2017-11-22T13:14:39.434Z,97191.80
2017-11-22T13:15:42.096Z,97190.70
2017-11-22T13:16:44.788Z,97199.07
2017-11-22T13:17:47.552Z,97197.78
2017-11-22T13:18:50.277Z,97201.05
2017-11-22T13:19:53.396Z,97197.26
2017-11-22T13:20:56.121Z,97189.44
2017-11-22T13:21:58.829Z,97185.93
2017-11-22T13:23:01.627Z,97193.77
2017-11-22T13:24:05.201Z,97184.62
2017-11-22T13:25:07.965Z,97188.22
2017-11-22T13:26:11.126Z,97184.44
2017-11-22T13:27:22.361Z,97187.94
2017-11-22T13:28:25.081Z,97193.73
2017-11-22T13:29:27.757Z,97187.90
2017-11-22T13:30:30.470Z,97186.67
2017-11-22T13:31:33.193Z,97191.19
2017-11-22T13:32:42.407Z,97189.72
2017-11-22T13:33:45.094Z,97188.38
2017-11-22T13:34:47.828Z,97184.39
2017-11-22T13:35:50.504Z,97181.50
2017-11-22T13:36:53.257Z,97177.91
2017-11-22T13:37:56.052Z,97179.86
2017-11-22T13:38:59.295Z,97182.26
2017-11-22T13:40:02.063Z,97158.86
2017-11-22T13:41:04.842Z,97161.56
2017-11-22T13:42:07.696Z,97166.09
2017-11-22T13:43:10.664Z,97161.23
2017-11-22T13:44:13.496Z,97179.87
2017-11-22T13:45:16.579Z,97174.37
2017-11-22T13:46:19.288Z,97167.67
2017-11-22T13:47:21.966Z,97170.28
2017-11-22T13:48:24.706Z,97171.53
2017-11-22T13:49:27.465Z,97171.08
2017-11-22T13:50:30.663Z,97161.18
2017-11-22T13:51:34.004Z,97174.14
2017-11-22T13:52:36.734Z,97157.59
2017-11-22T13:53:39.518Z,97169.68
2017-11-22T13:54:42.203Z,97173.66
2017-11-22T13:55:45.806Z,97163.26
2017-11-22T13:56:48.576Z,97163.95
2017-11-22T13:57:52.444Z,97167.52
2017-11-22T13:58:55.668Z,97166.65
2017-11-22T13:59:58.721Z,97169.42
2017-11-22T14:01:01.925Z,97156.89
2017-11-22T14:02:05.550Z,97167.68
2017-11-22T14:03:09.844Z,97160.85
2017-11-22T14:04:13.736Z,97156.93
2017-11-22T14:05:16.941Z,97161.15
2017-11-22T14:06:19.820Z,97161.09
2017-11-22T14:07:22.595Z,97169.73
2017-11-22T14:08:25.383Z,97165.02
2017-11-22T14:09:28.118Z,97176.41
2017-11-22T14:10:31.425Z,97174.19
2017-11-22T14:11:34.792Z,97161.38
2017-11-22T14:12:38.682Z,97168.71
2017-11-22T14:13:41.412Z,97160.86
2017-11-22T14:14:45.493Z,97166.80
2017-11-22T14:15:51.526Z,97169.50
2017-11-22T14:16:56.402Z,97164.92
2017-11-22T14:17:59.184Z,97166.04
2017-11-22T14:19:02.705Z,97167.92
2017-11-22T14:20:05.903Z,97156.47
2017-11-22T14:21:09.406Z,97155.31
2017-11-22T14:22:13.790Z,97156.23
2017-11-22T14:23:17.139Z,97153.11
2017-11-22T14:24:20.574Z,97147.68
2017-11-22T14:25:23.418Z,97149.52
2017-11-22T14:26:27.151Z,97147.55
2017-11-22T14:27:31.048Z,97144.22
2017-11-22T14:28:33.768Z,97147.07
2017-11-22T14:29:37.098Z,97140.47
2017-11-22T14:30:41.012Z,97131.97
2017-11-22T14:31:44.438Z,97135.33
2017-11-22T14:32:47.591Z,97137.38
2017-11-22T14:33:51.242Z,97133.17
2017-11-22T14:34:55.757Z,97137.77
2017-11-22T14:35:58.984Z,97134.38
2017-11-22T14:37:01.837Z,97137.42
2017-11-22T14:38:04.491Z,97134.30
2017-11-22T14:39:07.282Z,97141.28
2017-11-22T14:40:09.853Z,97138.05
2017-11-22T14:41:13.026Z,97140.76
2017-11-22T14:42:16.094Z,97132.91
2017-11-22T14:43:19.005Z,97133.70
2017-11-22T14:44:22.007Z,97138.78
2017-11-22T14:45:25.476Z,97137.56
2017-11-22T14:46:29.113Z,97140.16
2017-11-22T14:47:32.102Z,97142.78
2017-11-22T14:48:35.260Z,97139.33
2017-11-22T14:49:38.427Z,97136.39
2017-11-22T14:50:41.675Z,97137.64
2017-11-22T14:51:44.562Z,97139.14
2017-11-22T14:52:47.935Z,97137.17
2017-11-22T14:53:51.092Z,97132.31
2017-11-22T14:54:55.536Z,97136.98
2017-11-22T14:56:00.121Z,97141.95
2017-11-22T14:57:03.416Z,97136.69
2017-11-22T14:58:06.475Z,97135.08
2017-11-22T14:59:10.188Z,97132.77
2017-11-22T15:00:14.277Z,97126.08
2017-11-22T15:01:18.077Z,97129.06
2017-11-22T15:02:22.079Z,97137.66
2017-11-22T15:03:25.154Z,97132.23
2017-11-22T15:04:28.158Z,97137.83
2017-11-22T15:05:32.367Z,97133.11
2017-11-22T15:06:36.062Z,97140.69
2017-11-22T15:07:39.568Z,97130.44
2017-11-22T15:08:43.418Z,97125.84
2017-11-22T15:09:46.936Z,97134.58
2017-11-22T15:10:50.907Z,97134.72
2017-11-22T15:11:53.637Z,97133.14
2017-11-22T15:12:56.428Z,97129.05
2017-11-22T15:14:00.062Z,97134.48
2017-11-22T15:18:44.891Z,97132.70
2017-11-22T15:19:49.259Z,97134.95
2017-11-22T15:20:53.661Z,97134.81
2017-11-22T15:21:56.463Z,97134.06
2017-11-22T15:22:59.424Z,97136.28
2017-11-22T15:24:03.444Z,97134.52
2017-11-22T15:25:06.582Z,97131.06
2017-11-22T15:26:12.225Z,97142.66
2017-11-22T15:27:15.859Z,97134.61
2017-11-22T15:28:19.119Z,97137.89
2017-11-22T15:29:22.713Z,97136.46
2017-11-22T15:30:26.310Z,97139.23
2017-11-22T15:31:34.874Z,97134.38
2017-11-22T15:32:39.255Z,97132.22
2017-11-22T15:33:44.943Z,97134.35
2017-11-22T15:34:49.162Z,97136.94
2017-11-22T15:35:53.219Z,97132.44
2017-11-22T15:36:58.699Z,97134.58
2017-11-22T15:38:04.392Z,97135.91
2017-11-22T15:39:07.767Z,97137.48
2017-11-22T15:40:12.590Z,97139.15
2017-11-22T15:41:15.718Z,97131.52
2017-11-22T15:42:21.469Z,97135.09
2017-11-22T15:43:26.254Z,97137.63
2017-11-22T15:44:30.505Z,97145.73
2017-11-22T15:45:35.256Z,97144.06
2017-11-22T15:46:39.607Z,97140.56
2017-11-22T15:47:44.767Z,97137.46
2017-11-22T15:48:49.290Z,97139.78
2017-11-22T15:49:54.772Z,97135.78
2017-11-22T15:51:02.282Z,97135.11
2017-11-22T15:52:07.093Z,97133.70
2017-11-22T15:53:11.868Z,97135.54
2017-11-22T15:54:16.513Z,97134.90
2017-11-22T15:55:22.028Z,97130.47
2017-11-22T15:56:27.563Z,97128.14
2017-11-22T15:57:32.653Z,97131.11
2017-11-22T15:58:36.291Z,97127.48
2017-11-22T15:59:41.822Z,97131.11
2017-11-22T16:00:45.918Z,97127.87
2017-11-22T16:01:51.280Z,97129.73
2017-11-22T16:02:56.729Z,97122.45
2017-11-22T16:04:02.033Z,97118.05